createdAt,value
2022-08-11T00:08:36.000Z,69.72
2022-08-11T00:08:36.000Z,68.48
2022-08-11T00:09:36.000Z,72.34
2022-08-11T00:10:36.000Z,71.53
2022-08-11T00:11:36.000Z,71.13
2022-08-11T00:12:36.000Z,71.97
2022-08-11T00:13:36.000Z,72.17
2022-08-11T00:14:36.000Z,72.38
2022-08-11T00:15:36.000Z,72.88
2022-08-11T00:16:36.000Z,72.38
2022-08-11T00:16:36.000Z,72.38
2022-08-11T00:17:36.000Z,71.97
2022-08-11T00:17:36.000Z,71.97
2022-08-11T00:18:36.000Z,72.17
2022-08-11T00:18:36.000Z,72.17
2022-08-11T00:19:36.000Z,72.47
2022-08-11T00:19:36.000Z,72.47
2022-08-11T00:20:36.000Z,72.58
2022-08-11T00:20:36.000Z,72.58
2022-08-11T00:21:36.000Z,71.80
2022-08-11T00:22:36.000Z,70.79
2022-08-11T00:23:36.000Z,72.00
2022-08-11T00:24:36.000Z,72.81
2022-08-11T00:25:36.000Z,72.61
2022-08-11T00:26:36.000Z,74.22
2022-08-11T00:27:36.000Z,73.32
2022-08-11T00:28:36.000Z,72.81
2022-08-11T00:29:36.000Z,72.51
2022-08-11T00:30:36.000Z,72.61
2022-08-11T00:31:36.000Z,73.11
2022-08-11T00:32:36.000Z,73.05
2022-08-11T00:33:36.000Z,73.15
2022-08-11T00:34:36.000Z,72.75
2022-08-11T00:35:36.000Z,73.45
2022-08-11T00:36:36.000Z,73.75
2022-08-11T00:37:36.000Z,73.15
2022-08-11T00:38:36.000Z,73.15
2022-08-11T00:39:36.000Z,73.05
2022-08-11T00:40:36.000Z,73.58
2022-08-11T00:48:53.000Z,73.89
2022-08-11T00:48:53.000Z,73.58
2022-08-11T00:49:53.000Z,72.51
2022-08-11T00:50:53.000Z,74.02
2022-08-11T01:29:53.000Z,77.90
2022-08-11T01:29:53.000Z,78.06
2022-08-11T01:30:53.000Z,78.10
2022-08-11T01:31:53.000Z,78.10
2022-08-11T01:32:53.000Z,78.10
2022-08-11T01:33:53.000Z,78.10
2022-08-11T01:34:53.000Z,78.00
2022-08-11T01:35:53.000Z,78.50
2022-08-11T01:36:53.000Z,78.20
2022-08-11T01:37:53.000Z,78.61
2022-08-11T01:38:53.000Z,78.00
2022-08-11T01:39:53.000Z,77.29
2022-08-11T01:40:53.000Z,77.90
2022-08-11T01:41:53.000Z,78.81
2022-08-11T01:42:53.000Z,78.81
2022-08-11T02:06:19.000Z,78.34
2022-08-11T02:06:19.000Z,78.55
2022-08-11T02:06:19.000Z,78.55
2022-08-11T02:06:19.000Z,78.34
2022-08-11T02:07:19.000Z,78.95
2022-08-11T02:07:19.000Z,78.95
2022-08-11T02:08:19.000Z,79.46
2022-08-11T02:08:19.000Z,79.46
2022-08-11T02:09:19.000Z,79.66
2022-08-11T02:09:19.000Z,79.66
2022-08-11T02:10:19.000Z,79.90
2022-08-11T02:11:19.000Z,80.06
2022-08-11T02:12:19.000Z,80.06
2022-08-11T02:13:19.000Z,80.20
2022-08-11T02:14:19.000Z,80.91
2022-08-11T02:15:19.000Z,80.80
2022-08-11T02:16:19.000Z,80.80
2022-08-11T02:17:19.000Z,81.01
2022-08-11T02:18:18.000Z,81.21
2022-08-11T02:19:18.000Z,81.21
2022-08-11T02:27:36.000Z,81.55
2022-08-11T02:27:36.000Z,81.45
2022-08-11T02:28:36.000Z,81.45
2022-08-11T02:29:36.000Z,81.55
2022-08-11T02:48:27.000Z,82.10
2022-08-11T02:48:27.000Z,82.10
2022-08-11T02:49:27.000Z,82.64
2022-08-11T02:50:27.000Z,82.70
2022-08-11T02:51:27.000Z,82.75
2022-08-11T02:52:27.000Z,82.95
2022-08-11T02:53:27.000Z,83.15
2022-08-11T02:54:27.000Z,83.25
2022-08-11T02:55:27.000Z,83.15
2022-08-11T02:56:27.000Z,83.35
2022-08-11T02:57:27.000Z,83.25
2022-08-11T02:58:27.000Z,83.25
2022-08-11T02:59:27.000Z,83.45
2022-08-11T03:00:27.000Z,83.55
2022-08-11T03:01:27.000Z,83.55
2022-08-11T03:02:27.000Z,83.86
2022-08-11T03:03:27.000Z,84.06
2022-08-11T03:04:27.000Z,84.27
2022-08-11T03:05:27.000Z,84.16
2022-08-11T03:06:27.000Z,83.96
2022-08-11T03:07:27.000Z,84.06
2022-08-11T03:08:27.000Z,84.27
2022-08-11T03:09:27.000Z,83.96
2022-08-11T03:10:27.000Z,83.80
2022-08-11T03:11:27.000Z,84.20
2022-08-11T03:12:27.000Z,84.10
2022-08-11T03:13:27.000Z,84.30
2022-08-11T03:14:27.000Z,84.41
2022-08-11T03:15:27.000Z,84.41
2022-08-11T03:16:27.000Z,84.30
2022-08-11T03:17:27.000Z,84.41
2022-08-11T03:18:27.000Z,84.41
2022-08-11T03:19:27.000Z,84.61
2022-08-11T03:20:27.000Z,84.61
2022-08-11T03:22:44.000Z,84.50
2022-08-11T03:22:44.000Z,84.41
2022-08-11T03:23:44.000Z,84.61
2022-08-11T03:24:44.000Z,84.41
2022-08-11T03:25:44.000Z,84.30
2022-08-11T03:26:44.000Z,84.41
2022-08-11T03:27:44.000Z,84.41
2022-08-11T03:28:44.000Z,84.50
2022-08-11T03:29:44.000Z,84.61
2022-08-11T03:30:44.000Z,84.61
2022-08-11T03:31:44.000Z,84.61
2022-08-11T03:31:44.000Z,84.61
2022-08-11T03:32:44.000Z,84.70
2022-08-11T03:32:44.000Z,84.70
2022-08-11T03:33:44.000Z,84.81
2022-08-11T03:33:44.000Z,84.81
2022-08-11T03:34:44.000Z,84.81
2022-08-11T03:34:44.000Z,84.81
2022-08-11T03:35:44.000Z,84.91
2022-08-11T03:35:44.000Z,84.91
2022-08-11T03:36:44.000Z,85.01
2022-08-11T03:37:44.000Z,85.21
2022-08-11T03:38:44.000Z,85.31
2022-08-11T03:39:44.000Z,85.42
2022-08-11T03:40:44.000Z,85.52
2022-08-11T03:43:01.000Z,85.42
2022-08-11T03:43:01.000Z,85.31
2022-08-11T03:44:01.000Z,85.31
2022-08-11T03:45:01.000Z,85.31
2022-08-11T03:46:01.000Z,85.31
2022-08-11T03:47:01.000Z,85.21
2022-08-11T03:48:01.000Z,85.21
2022-08-11T03:49:01.000Z,85.21
2022-08-11T03:50:01.000Z,85.31
2022-08-11T03:51:01.000Z,85.31
2022-08-11T03:59:18.000Z,85.01
2022-08-11T03:59:18.000Z,85.15
2022-08-11T04:00:18.000Z,85.25
2022-08-11T04:01:18.000Z,85.36
2022-08-11T04:02:18.000Z,85.36
2022-08-11T04:03:18.000Z,85.42
2022-08-11T04:04:18.000Z,85.56
2022-08-11T04:05:18.000Z,85.62
2022-08-11T04:06:18.000Z,85.76
2022-08-11T04:07:18.000Z,85.93
2022-08-11T04:08:18.000Z,86.16
2022-08-11T04:09:18.000Z,86.13
2022-08-11T04:10:18.000Z,86.27
2022-08-11T04:11:18.000Z,86.13
2022-08-11T04:13:35.000Z,86.02
2022-08-11T04:13:35.000Z,85.72
2022-08-11T04:14:35.000Z,85.31
2022-08-11T04:15:35.000Z,84.70
2022-08-11T04:16:35.000Z,84.20
2022-08-11T04:17:35.000Z,84.20
2022-08-11T04:18:35.000Z,84.20
2022-08-11T04:19:35.000Z,83.69
2022-08-11T04:20:35.000Z,84.20
2022-08-11T04:21:35.000Z,84.77
2022-08-11T04:22:35.000Z,85.17
2022-08-11T04:23:35.000Z,85.58
2022-08-11T04:24:35.000Z,85.68
2022-08-11T04:25:35.000Z,85.78
2022-08-11T04:26:35.000Z,85.84
2022-08-11T04:27:35.000Z,85.94
2022-08-11T04:28:35.000Z,86.05
2022-08-11T04:29:35.000Z,86.25
2022-08-11T04:30:35.000Z,86.31
2022-08-11T04:31:35.000Z,86.41
2022-08-11T04:32:35.000Z,86.31
2022-08-11T04:32:35.000Z,86.31
2022-08-11T04:33:35.000Z,85.50
2022-08-11T04:33:35.000Z,85.50
2022-08-11T04:34:34.000Z,85.05
2022-08-11T04:34:34.000Z,85.05
2022-08-11T04:35:34.000Z,84.55
2022-08-11T04:35:34.000Z,84.55
2022-08-11T04:36:34.000Z,84.25
2022-08-11T04:36:34.000Z,84.25
2022-08-11T04:37:34.000Z,84.04
2022-08-11T04:38:34.000Z,84.55
2022-08-11T04:39:34.000Z,84.71
2022-08-11T04:40:34.000Z,84.81
2022-08-11T04:41:34.000Z,84.51
2022-08-11T04:42:34.000Z,84.51
2022-08-11T04:42:34.000Z,84.51
2022-08-11T04:43:34.000Z,84.20
2022-08-11T04:43:34.000Z,84.20
2022-08-11T04:44:34.000Z,84.17
2022-08-11T04:44:34.000Z,84.17
2022-08-11T04:45:34.000Z,84.47
2022-08-11T04:45:34.000Z,84.47
2022-08-11T04:46:34.000Z,83.86
2022-08-11T04:46:34.000Z,83.86
2022-08-11T04:47:34.000Z,82.55
2022-08-11T04:48:34.000Z,83.12
2022-08-11T04:49:34.000Z,83.32
2022-08-11T04:50:34.000Z,83.52
2022-08-11T04:51:34.000Z,83.48
2022-08-11T04:52:34.000Z,83.28
2022-08-11T04:53:34.000Z,82.98
2022-08-11T04:54:34.000Z,82.47
2022-08-11T04:55:34.000Z,80.11
2022-08-11T04:56:34.000Z,78.74
2022-08-11T04:57:34.000Z,78.80
2022-08-11T04:58:34.000Z,80.21
2022-08-11T04:59:34.000Z,80.62
2022-08-11T05:00:34.000Z,80.11
2022-08-11T05:01:34.000Z,79.91
2022-08-11T05:02:34.000Z,79.47
2022-08-11T05:03:34.000Z,78.66
2022-08-11T05:04:34.000Z,78.66
2022-08-11T05:05:34.000Z,77.04
2022-08-11T05:06:34.000Z,77.95
2022-08-11T05:07:34.000Z,78.06
2022-08-11T05:08:34.000Z,77.62
2022-08-11T05:09:34.000Z,78.22
2022-08-11T05:10:34.000Z,78.32
2022-08-11T05:11:34.000Z,77.92
2022-08-11T05:12:34.000Z,77.31
2022-08-11T05:13:34.000Z,75.87
2022-08-11T05:14:34.000Z,74.39
2022-08-11T05:15:34.000Z,75.80
2022-08-11T05:16:34.000Z,75.56
2022-08-11T05:17:34.000Z,76.17
2022-08-11T05:18:34.000Z,75.56
2022-08-11T05:19:34.000Z,74.96
2022-08-11T05:20:34.000Z,73.14
2022-08-11T05:21:34.000Z,72.14
2022-08-11T05:22:34.000Z,71.20
2022-08-11T05:23:34.000Z,71.50
2022-08-11T05:24:34.000Z,71.00
2022-08-11T05:25:34.000Z,71.70
2022-08-11T05:26:34.000Z,72.17
2022-08-11T05:27:34.000Z,72.17
2022-08-11T05:28:34.000Z,72.07
2022-08-11T05:29:34.000Z,69.76
2022-08-11T05:30:34.000Z,69.76
2022-08-11T05:31:34.000Z,69.05
2022-08-11T05:32:34.000Z,69.42
2022-08-11T05:33:34.000Z,69.72
2022-08-11T05:34:34.000Z,70.03
2022-08-11T05:35:34.000Z,69.62
2022-08-11T05:36:34.000Z,69.49
2022-08-11T05:37:34.000Z,68.98
2022-08-11T05:38:34.000Z,68.59
2022-08-11T05:39:34.000Z,67.58
2022-08-11T05:40:34.000Z,68.68
2022-08-11T05:41:34.000Z,66.47
2022-08-11T05:42:34.000Z,67.58
2022-08-11T05:43:34.000Z,69.29
2022-08-11T05:44:34.000Z,68.88
2022-08-11T05:45:34.000Z,68.75
2022-08-11T05:46:34.000Z,69.06
2022-08-11T05:47:34.000Z,69.15
2022-08-11T05:48:34.000Z,68.25
2022-08-11T05:49:34.000Z,68.15
2022-08-11T05:50:34.000Z,68.32
2022-08-11T05:51:34.000Z,68.82
2022-08-11T05:52:34.000Z,68.41
2022-08-11T05:52:34.000Z,68.41
2022-08-11T05:53:34.000Z,66.31
2022-08-11T05:53:34.000Z,66.31
2022-08-11T05:54:34.000Z,67.51
2022-08-11T05:54:34.000Z,67.51
2022-08-11T05:55:34.000Z,67.51
2022-08-11T05:55:34.000Z,67.51
2022-08-11T05:56:34.000Z,67.68
2022-08-11T05:56:34.000Z,67.68
2022-08-11T05:57:34.000Z,67.68
2022-08-11T05:58:34.000Z,67.48
2022-08-11T05:59:34.000Z,67.38
2022-08-11T06:00:34.000Z,67.35
2022-08-11T06:01:34.000Z,66.14
2022-08-11T06:02:34.000Z,66.64
2022-08-11T06:03:34.000Z,65.54
2022-08-11T06:04:34.000Z,64.24
2022-08-11T06:05:34.000Z,63.73
2022-08-11T06:06:34.000Z,65.74
2022-08-11T06:07:34.000Z,63.90
2022-08-11T06:08:34.000Z,64.71
2022-08-11T06:09:33.000Z,64.31
2022-08-11T06:10:33.000Z,63.90
2022-08-11T06:11:33.000Z,64.91
2022-08-11T06:12:33.000Z,65.41
2022-08-11T06:13:33.000Z,64.28
2022-08-11T06:14:33.000Z,63.57
2022-08-11T06:15:33.000Z,62.97
2022-08-11T06:16:33.000Z,64.28
2022-08-11T06:17:33.000Z,64.58
2022-08-11T06:18:33.000Z,62.74
2022-08-11T06:19:33.000Z,62.34
2022-08-11T06:20:33.000Z,61.34
2022-08-11T06:21:33.000Z,61.31
2022-08-11T06:51:58.000Z,59.49
2022-08-11T06:51:58.000Z,56.29
2022-08-11T06:52:58.000Z,56.29
2022-08-11T06:53:58.000Z,60.99
2022-08-11T06:54:58.000Z,58.76
2022-08-11T06:55:58.000Z,59.06
2022-08-11T06:56:58.000Z,59.27
2022-08-11T06:57:58.000Z,59.23
2022-08-11T06:58:58.000Z,57.74
2022-08-11T06:59:58.000Z,56.84
2022-08-11T07:00:58.000Z,55.71
2022-08-11T07:01:58.000Z,56.61
2022-08-11T07:02:58.000Z,55.02
2022-08-11T07:03:58.000Z,56.11
2022-08-11T07:04:58.000Z,58.78
2022-08-11T07:05:58.000Z,56.09
2022-08-11T07:06:58.000Z,54.79
2022-08-11T07:07:58.000Z,54.66
2022-08-11T07:08:58.000Z,55.06
2022-08-11T07:09:58.000Z,53.96
2022-08-11T07:10:58.000Z,53.96
2022-08-11T07:11:58.000Z,54.04
2022-08-11T07:12:58.000Z,52.94
2022-08-11T07:13:58.000Z,52.44
2022-08-11T07:14:58.000Z,51.25
2022-08-11T07:15:58.000Z,50.62
2022-08-11T07:16:58.000Z,50.13
2022-08-11T07:17:58.000Z,48.93
2022-08-11T07:25:16.000Z,52.79
2022-08-11T07:25:16.000Z,51.87
2022-08-11T07:26:16.000Z,51.97
2022-08-11T07:27:16.000Z,50.27
2022-08-11T07:28:16.000Z,52.34
2022-08-11T07:29:16.000Z,50.45
2022-08-11T07:30:16.000Z,51.05
2022-08-11T07:31:16.000Z,50.55
2022-08-11T07:32:16.000Z,50.52
2022-08-11T07:33:16.000Z,48.83
2022-08-11T07:34:16.000Z,50.52
2022-08-11T07:35:16.000Z,48.34
2022-08-11T07:36:16.000Z,50.43
2022-08-11T07:37:16.000Z,50.70
2022-08-11T07:38:16.000Z,49.51
2022-08-11T07:39:16.000Z,51.40
2022-08-11T07:39:16.000Z,51.40
2022-08-11T07:40:16.000Z,49.41
2022-08-11T07:40:16.000Z,49.41
2022-08-11T07:41:16.000Z,49.08
2022-08-11T07:41:16.000Z,49.08
2022-08-11T07:42:16.000Z,51.37
2022-08-11T07:42:16.000Z,51.37
2022-08-11T07:43:16.000Z,50.98
2022-08-11T07:43:16.000Z,50.98
2022-08-11T07:44:16.000Z,51.15
2022-08-11T07:45:16.000Z,48.57
2022-08-11T07:46:16.000Z,47.38
2022-08-11T07:47:16.000Z,48.65
2022-08-11T07:48:16.000Z,49.84
2022-08-11T07:49:16.000Z,48.14
2022-08-11T07:50:16.000Z,46.95
2022-08-11T07:51:16.000Z,49.91
2022-08-11T07:52:16.000Z,49.91
2022-08-11T07:53:16.000Z,48.42
2022-08-11T08:05:49.000Z,47.44
2022-08-11T08:05:49.000Z,46.07
2022-08-11T08:06:49.000Z,48.53
2022-08-11T08:07:49.000Z,46.25
2022-08-11T08:08:49.000Z,43.55
2022-08-11T08:47:46.000Z,36.41
2022-08-11T08:47:46.000Z,40.55
2022-08-11T08:47:46.000Z,36.41
2022-08-11T08:47:46.000Z,40.55
2022-08-11T08:48:46.000Z,36.40
2022-08-11T08:48:46.000Z,36.40
2022-08-11T08:49:46.000Z,38.36
2022-08-11T08:49:46.000Z,38.36
2022-08-11T08:50:46.000Z,36.69
2022-08-11T08:50:46.000Z,36.69
2022-08-11T08:51:46.000Z,34.61
2022-08-11T08:52:46.000Z,37.36
2022-08-11T08:53:46.000Z,37.05
2022-08-11T08:54:46.000Z,33.61
2022-08-11T08:55:46.000Z,36.38
2022-08-11T08:56:46.000Z,34.59
2022-08-11T08:57:46.000Z,36.75
2022-08-11T08:58:46.000Z,39.98
2022-08-11T08:59:46.000Z,39.29
2022-08-11T09:00:46.000Z,36.82
2022-08-11T09:01:46.000Z,34.66
2022-08-11T09:02:46.000Z,35.34
2022-08-11T09:03:46.000Z,33.59
2022-08-11T09:04:46.000Z,37.62
2022-08-11T09:05:46.000Z,38.68
2022-08-11T09:06:46.000Z,37.88
2022-08-11T09:07:46.000Z,34.54
2022-08-11T09:08:46.000Z,34.33
2022-08-11T09:09:46.000Z,32.07
2022-08-11T09:10:46.000Z,35.11
2022-08-11T09:11:46.000Z,32.07
2022-08-11T09:12:46.000Z,32.56
2022-08-11T09:13:46.000Z,33.54
2022-08-11T09:14:46.000Z,33.44
2022-08-11T09:15:46.000Z,33.64
2022-08-11T09:16:46.000Z,36.29
2022-08-11T09:17:46.000Z,33.25
2022-08-11T09:18:46.000Z,32.64
2022-08-11T09:19:46.000Z,32.45
2022-08-11T09:20:46.000Z,34.61
2022-08-11T09:21:46.000Z,33.53
2022-08-11T09:22:46.000Z,35.19
2022-08-11T09:23:46.000Z,32.53
2022-08-11T09:24:46.000Z,33.80
2022-08-11T09:25:46.000Z,33.89
2022-08-11T09:26:46.000Z,34.96
2022-08-11T09:27:46.000Z,34.36
2022-08-11T09:28:46.000Z,31.81
2022-08-11T09:29:46.000Z,32.40
2022-08-11T09:30:46.000Z,32.99
2022-08-11T09:31:46.000Z,33.26
2022-08-11T09:32:46.000Z,31.80
2022-08-11T09:33:46.000Z,30.32
2022-08-11T09:34:46.000Z,33.74
2022-08-11T09:35:46.000Z,30.71
2022-08-11T09:36:46.000Z,30.90
2022-08-11T09:36:46.000Z,30.90
2022-08-11T09:37:46.000Z,32.86
2022-08-11T09:37:46.000Z,32.86
2022-08-11T09:38:46.000Z,32.17
2022-08-11T09:38:46.000Z,32.17
2022-08-11T09:39:46.000Z,31.39
2022-08-11T09:39:46.000Z,31.39
2022-08-11T09:40:46.000Z,29.73
2022-08-11T09:40:46.000Z,29.73
2022-08-11T09:41:46.000Z,29.25
2022-08-11T09:42:46.000Z,29.74
2022-08-11T09:43:46.000Z,31.68
2022-08-11T09:44:46.000Z,33.04
2022-08-11T09:45:46.000Z,32.35
2022-08-11T09:46:46.000Z,32.43
2022-08-11T09:47:46.000Z,29.90
2022-08-11T09:48:46.000Z,33.51
2022-08-11T09:49:46.000Z,29.99
2022-08-11T09:50:46.000Z,32.42
2022-08-11T10:02:28.000Z,29.39
2022-08-11T10:02:28.000Z,30.08
2022-08-11T10:03:28.000Z,29.00
2022-08-11T10:04:28.000Z,29.02
2022-08-11T10:05:28.000Z,29.03
2022-08-11T10:06:28.000Z,28.44
2022-08-11T10:07:28.000Z,31.20
2022-08-11T10:08:28.000Z,30.49
2022-08-11T10:09:28.000Z,29.61
2022-08-11T10:10:28.000Z,30.30
2022-08-11T10:11:28.000Z,29.42
2022-08-11T10:12:28.000Z,30.58
2022-08-11T10:13:28.000Z,29.50
2022-08-11T10:14:28.000Z,30.29
2022-08-11T10:15:28.000Z,31.26
2022-08-11T10:16:28.000Z,30.77
2022-08-11T10:17:28.000Z,30.27
2022-08-11T10:18:28.000Z,29.79
2022-08-11T10:19:28.000Z,31.15
2022-08-11T10:20:28.000Z,30.08
2022-08-11T10:21:28.000Z,29.28
2022-08-11T10:22:28.000Z,29.67
2022-08-11T10:23:28.000Z,29.38
2022-08-11T10:24:28.000Z,30.05
2022-08-11T10:25:28.000Z,29.46
2022-08-11T10:26:28.000Z,28.03
2022-08-11T10:26:28.000Z,28.03
2022-08-11T10:27:28.000Z,29.98
2022-08-11T10:27:28.000Z,29.98
2022-08-11T10:28:28.000Z,28.42
2022-08-11T10:28:28.000Z,28.42
2022-08-11T10:29:28.000Z,29.80
2022-08-11T10:29:28.000Z,29.80
2022-08-11T10:30:28.000Z,29.70
2022-08-11T10:30:28.000Z,29.70
2022-08-11T10:31:28.000Z,29.31
2022-08-11T10:32:28.000Z,28.93
2022-08-11T10:33:28.000Z,29.83
2022-08-11T10:34:28.000Z,30.61
2022-08-11T10:35:28.000Z,30.02
2022-08-11T10:44:45.000Z,29.07
2022-08-11T10:44:45.000Z,30.41
2022-08-11T10:45:45.000Z,30.55
2022-08-11T10:46:45.000Z,30.47
2022-08-11T10:47:45.000Z,30.87
2022-08-11T10:48:45.000Z,31.16
2022-08-11T10:49:45.000Z,32.14
2022-08-11T10:50:45.000Z,31.65
2022-08-11T10:51:45.000Z,29.98
2022-08-11T10:52:45.000Z,36.43
2022-08-11T10:53:45.000Z,32.99
2022-08-11T10:54:45.000Z,31.90
2022-08-11T10:55:45.000Z,30.82
2022-08-11T10:56:45.000Z,32.07
2022-08-11T10:57:45.000Z,28.55
2022-08-11T10:58:45.000Z,30.41
2022-08-11T10:59:45.000Z,30.20
2022-08-11T11:00:45.000Z,30.49
2022-08-11T11:01:45.000Z,29.81
2022-08-11T11:02:45.000Z,30.00
2022-08-11T11:03:45.000Z,29.21
2022-08-11T11:04:45.000Z,30.77
2022-08-11T11:05:44.000Z,29.10
2022-08-11T11:06:44.000Z,28.74
2022-08-11T11:07:44.000Z,29.13
2022-08-11T11:08:44.000Z,29.34
2022-08-11T11:09:44.000Z,29.93
2022-08-11T11:10:44.000Z,28.65
2022-08-11T11:11:44.000Z,30.02
2022-08-11T11:12:44.000Z,29.34
2022-08-11T11:13:44.000Z,30.02
2022-08-11T11:14:44.000Z,30.02
2022-08-11T11:15:44.000Z,30.51
2022-08-11T11:16:44.000Z,30.80
2022-08-11T11:17:44.000Z,30.59
2022-08-11T11:18:44.000Z,29.81
2022-08-11T11:19:44.000Z,30.88
2022-08-11T11:20:44.000Z,29.50
2022-08-11T11:28:01.000Z,26.89
2022-08-11T11:28:01.000Z,26.98
2022-08-11T11:29:01.000Z,27.18
2022-08-11T11:30:01.000Z,26.40
2022-08-11T11:31:01.000Z,26.29
2022-08-11T11:32:01.000Z,26.30
2022-08-11T11:33:01.000Z,28.05
2022-08-11T11:34:01.000Z,28.04
2022-08-11T11:35:01.000Z,27.65
2022-08-11T11:36:01.000Z,28.80
2022-08-11T11:37:01.000Z,28.11
2022-08-11T11:38:01.000Z,26.46
2022-08-11T11:39:01.000Z,27.23
2022-08-11T11:40:01.000Z,25.89
2022-08-11T11:41:01.000Z,25.51
2022-08-11T11:42:01.000Z,27.75
2022-08-11T11:43:01.000Z,25.41
2022-08-11T11:44:01.000Z,25.13
2022-08-11T11:45:01.000Z,27.08
2022-08-11T11:46:01.000Z,29.71
2022-08-11T11:47:01.000Z,26.68
2022-08-11T11:48:01.000Z,27.26
2022-08-11T11:49:01.000Z,25.60
2022-08-11T11:50:01.000Z,25.90
2022-08-11T11:51:01.000Z,25.70
2022-08-11T11:52:01.000Z,27.25
2022-08-11T11:53:01.000Z,27.06
2022-08-11T11:54:01.000Z,24.83
2022-08-11T11:55:01.000Z,28.82
2022-08-11T11:56:01.000Z,28.22
2022-08-11T11:57:01.000Z,26.58
2022-08-11T11:58:01.000Z,28.04
2022-08-11T11:59:01.000Z,26.29
2022-08-11T12:00:01.000Z,27.84
2022-08-11T12:01:01.000Z,26.19
2022-08-11T12:02:01.000Z,25.12
2022-08-11T12:03:01.000Z,25.62
2022-08-11T12:04:01.000Z,26.29
2022-08-11T12:05:01.000Z,25.90
2022-08-11T12:06:01.000Z,24.91
2022-08-11T12:07:01.000Z,24.63
2022-08-11T12:08:01.000Z,24.82
2022-08-11T12:09:01.000Z,25.40
2022-08-11T12:10:01.000Z,24.82
2022-08-11T12:11:01.000Z,24.52
2022-08-11T12:12:01.000Z,24.93
2022-08-11T12:13:01.000Z,25.23
2022-08-11T12:14:01.000Z,24.84
2022-08-11T12:15:01.000Z,25.90
2022-08-11T12:16:01.000Z,24.83
2022-08-11T12:17:01.000Z,25.21
2022-08-11T12:18:01.000Z,25.49
2022-08-11T12:19:01.000Z,25.49
2022-08-11T12:20:01.000Z,24.62
2022-08-11T12:21:01.000Z,23.45
2022-08-11T12:22:01.000Z,24.15
2022-08-11T12:22:01.000Z,24.15
2022-08-11T12:23:01.000Z,25.12
2022-08-11T12:23:01.000Z,25.12
2022-08-11T12:24:01.000Z,25.12
2022-08-11T12:24:01.000Z,25.12
2022-08-11T12:25:01.000Z,25.69
2022-08-11T12:25:01.000Z,25.69
2022-08-11T12:26:01.000Z,25.30
2022-08-11T12:26:01.000Z,25.30
2022-08-11T12:27:01.000Z,26.76
2022-08-11T12:28:01.000Z,26.29
2022-08-11T12:29:01.000Z,25.90
2022-08-11T12:30:01.000Z,25.70
2022-08-11T12:31:01.000Z,28.03
2022-08-11T12:32:01.000Z,26.94
2022-08-11T12:33:01.000Z,25.87
2022-08-11T12:34:01.000Z,27.43
2022-08-11T12:35:01.000Z,25.95
2022-08-11T12:36:01.000Z,24.97
2022-08-11T12:37:01.000Z,24.49
2022-08-11T12:38:00.000Z,25.26
2022-08-11T12:39:00.000Z,23.61
2022-08-11T12:40:00.000Z,22.85
2022-08-11T12:41:00.000Z,23.43
2022-08-11T12:42:00.000Z,23.43
2022-08-11T12:43:00.000Z,23.72
2022-08-11T12:44:00.000Z,24.40
2022-08-11T12:45:00.000Z,23.33
2022-08-11T12:46:00.000Z,22.96
2022-08-11T12:47:00.000Z,23.07
2022-08-11T12:47:00.000Z,23.07
2022-08-11T12:48:00.000Z,26.28
2022-08-11T12:48:00.000Z,26.28
2022-08-11T12:49:00.000Z,23.84
2022-08-11T12:49:00.000Z,23.84
2022-08-11T12:50:00.000Z,25.19
2022-08-11T12:50:00.000Z,25.19
2022-08-11T12:51:00.000Z,24.40
2022-08-11T12:51:00.000Z,24.40
2022-08-11T12:52:00.000Z,24.19
2022-08-11T12:53:00.000Z,25.54
2022-08-11T12:54:00.000Z,23.99
2022-08-11T12:55:00.000Z,22.35
2022-08-11T12:56:00.000Z,23.21
2022-08-11T12:57:00.000Z,23.99
2022-08-11T12:58:00.000Z,24.28
2022-08-11T12:59:00.000Z,23.88
2022-08-11T13:00:00.000Z,24.56
2022-08-11T13:01:00.000Z,24.27
2022-08-11T13:02:00.000Z,23.79
2022-08-11T13:03:00.000Z,23.49
2022-08-11T13:04:00.000Z,23.68
2022-08-11T13:05:00.000Z,24.73
2022-08-11T13:06:00.000Z,22.60
2022-08-11T13:07:00.000Z,22.39
2022-08-11T13:08:00.000Z,24.82
2022-08-11T13:09:00.000Z,23.55
2022-08-11T13:10:00.000Z,22.97
2022-08-11T13:11:00.000Z,22.12
2022-08-11T13:12:00.000Z,22.44
2022-08-11T13:13:00.000Z,24.49
2022-08-11T13:14:00.000Z,23.79
2022-08-11T13:15:00.000Z,22.44
2022-08-11T13:16:00.000Z,22.63
2022-08-11T13:17:00.000Z,23.52
2022-08-11T13:18:00.000Z,22.35
2022-08-11T13:19:00.000Z,22.64
2022-08-11T13:20:00.000Z,25.56
2022-08-11T13:21:00.000Z,24.39
2022-08-11T13:22:00.000Z,24.67
2022-08-11T13:23:00.000Z,23.99
2022-08-11T13:24:00.000Z,23.03
2022-08-11T13:25:00.000Z,22.56
2022-08-11T13:26:00.000Z,23.27
2022-08-11T13:27:00.000Z,24.26
2022-08-11T13:28:00.000Z,26.21
2022-08-11T13:29:00.000Z,23.77
2022-08-11T13:30:00.000Z,24.07
2022-08-11T13:31:00.000Z,24.85
2022-08-11T13:32:00.000Z,23.49
2022-08-11T13:33:00.000Z,24.96
2022-08-11T13:34:00.000Z,24.77
2022-08-11T13:35:00.000Z,24.68
2022-08-11T13:36:00.000Z,25.75
2022-08-11T13:37:00.000Z,25.64
2022-08-11T13:38:00.000Z,27.39
2022-08-11T13:39:00.000Z,25.24
2022-08-11T13:40:00.000Z,26.79
2022-08-11T13:41:00.000Z,24.73
2022-08-11T13:50:17.000Z,24.39
2022-08-11T13:50:17.000Z,23.52
2022-08-11T13:51:17.000Z,23.31
2022-08-11T13:52:17.000Z,24.28
2022-08-11T13:52:17.000Z,24.28
2022-08-11T13:53:17.000Z,22.92
2022-08-11T13:53:17.000Z,22.92
2022-08-11T13:54:17.000Z,23.60
2022-08-11T13:54:17.000Z,23.60
2022-08-11T13:55:17.000Z,22.53
2022-08-11T13:55:17.000Z,22.53
2022-08-11T13:56:16.000Z,23.21
2022-08-11T13:56:16.000Z,23.21
2022-08-11T13:57:16.000Z,24.28
2022-08-11T13:58:16.000Z,23.61
2022-08-11T13:59:16.000Z,22.93
2022-08-11T14:00:16.000Z,23.22
2022-08-11T14:01:16.000Z,23.71
2022-08-11T14:02:16.000Z,22.35
2022-08-11T14:03:16.000Z,22.93
2022-08-11T14:04:16.000Z,23.33
2022-08-11T14:05:16.000Z,23.73
2022-08-11T14:06:16.000Z,22.97
2022-08-11T14:07:16.000Z,24.44
2022-08-11T14:08:16.000Z,24.13
2022-08-11T14:09:16.000Z,24.32
2022-08-11T14:10:16.000Z,22.66
2022-08-11T14:11:16.000Z,23.35
2022-08-11T14:12:16.000Z,23.15
2022-08-11T14:12:16.000Z,23.15
2022-08-11T14:13:16.000Z,24.13
2022-08-11T14:13:16.000Z,24.13
2022-08-11T14:14:16.000Z,23.73
2022-08-11T14:14:16.000Z,23.73
2022-08-11T14:15:16.000Z,24.22
2022-08-11T14:15:16.000Z,24.22
2022-08-11T14:16:16.000Z,24.40
2022-08-11T14:16:16.000Z,24.40
2022-08-11T14:17:16.000Z,24.40
2022-08-11T14:18:16.000Z,24.11
2022-08-11T14:19:16.000Z,24.11
2022-08-11T14:20:16.000Z,24.58
2022-08-11T14:21:16.000Z,25.84
2022-08-11T14:22:16.000Z,24.96
2022-08-11T14:23:16.000Z,25.05
2022-08-11T14:24:16.000Z,23.89
2022-08-11T14:25:16.000Z,24.76
2022-08-11T14:26:16.000Z,23.28
2022-08-11T14:34:32.000Z,23.46
2022-08-11T14:34:32.000Z,23.25
2022-08-11T14:35:32.000Z,21.51
2022-08-11T14:36:32.000Z,21.69
2022-08-11T14:37:32.000Z,23.22
2022-08-11T14:38:32.000Z,22.14
2022-08-11T14:39:32.000Z,24.37
2022-08-11T14:40:32.000Z,23.10
2022-08-11T14:41:32.000Z,22.23
2022-08-11T14:42:32.000Z,21.17
2022-08-11T14:43:32.000Z,21.65
2022-08-11T14:44:32.000Z,23.00
2022-08-11T14:45:32.000Z,21.77
2022-08-11T14:46:32.000Z,21.78
2022-08-11T14:47:32.000Z,23.33
2022-08-11T14:48:32.000Z,21.80
2022-08-11T14:49:32.000Z,22.38
2022-08-11T14:50:32.000Z,23.43
2022-08-11T14:51:32.000Z,22.65
2022-08-11T14:52:32.000Z,21.40
2022-08-11T14:52:32.000Z,21.40
2022-08-11T14:53:32.000Z,22.16
2022-08-11T14:53:32.000Z,22.16
2022-08-11T14:54:32.000Z,21.68
2022-08-11T14:54:32.000Z,21.68
2022-08-11T14:55:32.000Z,23.03
2022-08-11T14:55:32.000Z,23.03
2022-08-11T14:56:32.000Z,21.10
2022-08-11T14:56:32.000Z,21.10
2022-08-11T14:57:32.000Z,22.88
2022-08-11T14:58:32.000Z,22.68
2022-08-11T14:59:32.000Z,21.91
2022-08-11T15:00:32.000Z,21.51
2022-08-11T15:01:32.000Z,22.20
2022-08-11T15:21:36.000Z,22.80
2022-08-11T15:21:36.000Z,22.41
2022-08-11T15:22:36.000Z,23.20
2022-08-11T15:23:36.000Z,24.17
2022-08-11T15:24:36.000Z,23.49
2022-08-11T15:25:36.000Z,23.31
2022-08-11T15:26:36.000Z,23.41
2022-08-11T15:27:36.000Z,22.93
2022-08-11T15:28:36.000Z,23.82
2022-08-11T15:29:36.000Z,24.21
2022-08-11T15:30:36.000Z,24.41
2022-08-11T15:31:36.000Z,23.94
2022-08-11T15:32:36.000Z,24.82
2022-08-11T15:33:36.000Z,25.99
2022-08-11T15:34:36.000Z,25.51